createdAt,value
2022-09-23T00:01:27.265Z,100374.69
2022-09-23T00:06:51.851Z,100370.78
2022-09-23T00:12:18.134Z,100372.31
2022-09-23T00:17:43.380Z,100361.88
2022-09-23T00:23:07.668Z,100366.38
2022-09-23T00:28:34.601Z,100371.91
2022-09-23T00:34:01.339Z,100368.72
2022-09-23T00:39:26.351Z,100360.66
2022-09-23T00:44:55.250Z,100350.69
2022-09-23T00:50:27.254Z,100345.13
2022-09-23T00:55:55.727Z,100352.94
2022-09-23T01:01:22.408Z,100357.19
2022-09-23T01:06:46.978Z,100359.50
2022-09-23T01:12:25.443Z,100353.47
2022-09-23T01:18:09.796Z,100345.78
2022-09-23T01:24:11.491Z,100339.84
2022-09-23T01:30:05.217Z,100344.28
2022-09-23T01:35:44.778Z,100332.47
2022-09-23T01:41:18.430Z,100349.47
2022-09-23T01:46:50.641Z,100350.22
2022-09-23T01:52:19.605Z,100341.44
2022-09-23T01:57:49.716Z,100351.88
2022-09-23T02:03:18.527Z,100356.25
2022-09-23T02:08:51.522Z,100357.41
2022-09-23T02:14:20.626Z,100351.00
2022-09-23T02:19:48.675Z,100356.25
2022-09-23T02:25:17.366Z,100359.31
2022-09-23T02:30:49.835Z,100358.84
2022-09-23T02:36:22.814Z,100360.97
2022-09-23T02:41:55.830Z,100371.38
2022-09-23T02:47:30.288Z,100359.69
2022-09-23T02:52:55.595Z,100356.72
2022-09-23T02:58:21.616Z,100344.34
2022-09-23T03:03:56.434Z,100337.94
2022-09-23T03:09:27.275Z,100352.34
2022-09-23T03:14:58.761Z,100341.34
2022-09-23T03:20:34.180Z,100328.66
2022-09-23T03:26:04.853Z,100335.34
2022-09-23T03:31:30.935Z,100344.78
2022-09-23T03:37:01.701Z,100349.16
2022-09-23T03:42:30.149Z,100347.97
2022-09-23T03:47:57.652Z,100371.34
2022-09-23T03:53:23.574Z,100381.34
2022-09-23T03:58:48.979Z,100389.66
2022-09-23T04:04:14.981Z,100383.28
2022-09-23T04:09:39.652Z,100397.03
2022-09-23T04:15:05.167Z,100375.75
2022-09-23T04:20:30.592Z,100365.19
2022-09-23T04:25:55.676Z,100353.41
2022-09-23T04:31:19.902Z,100365.88
2022-09-23T04:36:48.431Z,100384.81
2022-09-23T04:42:12.658Z,100383.75
2022-09-23T04:47:37.998Z,100369.47
2022-09-23T04:53:03.378Z,100353.47
2022-09-23T04:58:28.704Z,100363.91
2022-09-23T05:03:54.751Z,100358.28
2022-09-23T05:09:20.337Z,100359.91
2022-09-23T05:14:44.804Z,100358.66
2022-09-23T05:20:10.489Z,100352.06
2022-09-23T05:25:39.146Z,100330.94
2022-09-23T05:31:04.438Z,100325.91
2022-09-23T05:36:34.332Z,100337.44
2022-09-23T05:42:02.572Z,100338.94
2022-09-23T05:47:27.249Z,100348.16
2022-09-23T05:52:53.106Z,100340.44
2022-09-23T05:58:19.353Z,100341.31
2022-09-23T06:03:46.861Z,100332.38
2022-09-23T06:09:14.899Z,100340.53
2022-09-23T06:14:40.348Z,100333.69
2022-09-23T06:20:05.136Z,100339.41
2022-09-23T06:25:32.676Z,100352.97
2022-09-23T06:31:00.581Z,100356.84
2022-09-23T06:36:41.209Z,100363.94
2022-09-23T06:42:08.307Z,100370.81
2022-09-23T06:47:34.118Z,100379.44
2022-09-23T06:53:01.203Z,100379.94
2022-09-23T06:58:26.877Z,100377.78
2022-09-23T07:03:52.525Z,100363.44
2022-09-23T07:09:17.500Z,100356.38
2022-09-23T07:14:42.108Z,100361.66
2022-09-23T07:20:08.850Z,100366.72
2022-09-23T07:25:34.277Z,100351.66
2022-09-23T07:31:04.559Z,100329.66
2022-09-23T07:36:32.901Z,100317.38
2022-09-23T07:41:58.087Z,100312.59
2022-09-23T07:47:26.908Z,100320.59
2022-09-23T07:52:53.671Z,100316.03
2022-09-23T07:58:18.290Z,100321.19
2022-09-23T08:03:43.979Z,100317.69
2022-09-23T08:09:14.599Z,100317.63
2022-09-23T08:14:39.757Z,100327.44
2022-09-23T08:20:06.529Z,100329.13
2022-09-23T08:25:34.771Z,100324.03
2022-09-23T08:30:59.408Z,100333.88
2022-09-23T08:36:24.291Z,100335.97
2022-09-23T08:42:07.363Z,100324.94
2022-09-23T08:47:41.442Z,100316.34
2022-09-23T08:53:09.583Z,100308.69
2022-09-23T08:58:46.319Z,100305.84
2022-09-23T09:04:19.293Z,100324.03
2022-09-23T09:09:49.078Z,100318.59
2022-09-23T09:15:19.567Z,100320.22
2022-09-23T09:20:54.924Z,100319.50
2022-09-23T09:26:24.410Z,100322.91
2022-09-23T09:31:51.986Z,100325.28
2022-09-23T09:37:21.977Z,100334.66
2022-09-23T09:42:49.862Z,100337.25
2022-09-23T09:48:22.707Z,100339.53
2022-09-23T09:53:47.300Z,100329.38
2022-09-23T09:59:17.578Z,100334.59
2022-09-23T10:04:43.912Z,100332.63
2022-09-23T10:10:32.562Z,100328.25
2022-09-23T10:15:59.602Z,100324.41
2022-09-23T10:21:33.297Z,100329.16
2022-09-23T10:27:07.710Z,100320.19
2022-09-23T10:32:40.046Z,100318.53
2022-09-23T10:38:06.045Z,100308.97
2022-09-23T10:43:57.578Z,100311.22
2022-09-23T10:50:08.061Z,100326.84
2022-09-23T10:55:57.250Z,100322.38
2022-09-23T11:01:31.065Z,100314.66
2022-09-23T11:07:10.473Z,100299.97
2022-09-23T11:12:46.470Z,100307.94
2022-09-23T11:18:45.901Z,100304.97
2022-09-23T11:24:58.541Z,100299.81
2022-09-23T11:30:32.276Z,100292.13
2022-09-23T11:36:02.727Z,100294.31
2022-09-23T11:41:31.288Z,100295.13
2022-09-23T11:47:02.994Z,100292.34
2022-09-23T11:52:33.167Z,100276.63
2022-09-23T11:58:01.893Z,100292.19
2022-09-23T12:03:44.386Z,100284.38
2022-09-23T12:09:18.101Z,100287.31
2022-09-23T12:14:55.341Z,100299.91
2022-09-23T12:20:44.628Z,100284.66
2022-09-23T12:26:17.214Z,100288.94
2022-09-23T12:31:46.762Z,100291.63
2022-09-23T12:37:13.780Z,100290.66
2022-09-23T12:42:47.115Z,100296.88
2022-09-23T12:48:45.358Z,100302.53
2022-09-23T12:54:25.739Z,100300.75
2022-09-23T12:59:59.747Z,100304.19
2022-09-23T13:05:47.174Z,100308.44
2022-09-23T13:11:23.841Z,100306.34
2022-09-23T13:16:50.409Z,100305.91
2022-09-23T13:22:42.832Z,100309.41
2022-09-23T13:28:28.521Z,100311.66
2022-09-23T13:34:01.888Z,100314.50
2022-09-23T13:39:28.578Z,100311.09
2022-09-23T13:44:57.897Z,100322.75
2022-09-23T13:50:24.844Z,100323.31
2022-09-23T13:56:01.559Z,100328.97
2022-09-23T14:01:33.751Z,100337.72
2022-09-23T14:07:04.120Z,100342.50
2022-09-23T14:12:28.959Z,100358.09
2022-09-23T14:18:03.348Z,100358.09
2022-09-23T14:23:28.285Z,100359.78
2022-09-23T14:28:54.020Z,100360.56
2022-09-23T14:34:42.461Z,100362.75
2022-09-23T14:40:11.384Z,100360.56
2022-09-23T14:45:38.551Z,100368.53
2022-09-23T14:51:10.940Z,100374.00
2022-09-23T14:56:43.025Z,100367.09
2022-09-23T15:02:35.583Z,100364.00
2022-09-23T15:08:03.900Z,100359.47
2022-09-23T15:13:31.060Z,100364.94
2022-09-23T15:18:57.743Z,100374.72
2022-09-23T15:24:41.463Z,100372.72
2022-09-23T15:30:17.189Z,100383.38
2022-09-23T15:35:46.486Z,100380.84
2022-09-23T15:41:12.069Z,100388.72
2022-09-23T15:46:38.351Z,100391.59
2022-09-23T15:52:04.795Z,100397.28
2022-09-23T15:57:30.607Z,100395.72
2022-09-23T16:02:55.317Z,100405.22
2022-09-23T16:08:23.406Z,100409.34
2022-09-23T16:13:50.532Z,100403.94
2022-09-23T16:19:16.027Z,100402.84
2022-09-23T16:24:41.416Z,100404.69
2022-09-23T16:30:09.072Z,100409.34
2022-09-23T16:35:34.808Z,100410.91
2022-09-23T16:41:00.809Z,100415.38
2022-09-23T16:46:27.192Z,100416.84
2022-09-23T16:51:52.257Z,100415.59
2022-09-23T16:57:16.646Z,100430.34
2022-09-23T17:03:00.418Z,100417.00
2022-09-23T17:08:25.101Z,100416.09
2022-09-23T17:13:50.714Z,100418.63
2022-09-23T17:19:17.523Z,100420.47
2022-09-23T17:24:45.612Z,100420.94
2022-09-23T17:30:10.622Z,100428.44
2022-09-23T17:35:36.206Z,100422.97
2022-09-23T17:41:01.335Z,100426.66
2022-09-23T17:46:25.809Z,100430.22
2022-09-23T17:51:51.879Z,100426.78
2022-09-23T17:57:17.765Z,100427.28
2022-09-23T18:02:43.913Z,100418.31
2022-09-23T18:08:09.938Z,100425.00
2022-09-23T18:13:35.213Z,100425.25
2022-09-23T18:19:01.349Z,100427.50
2022-09-23T18:24:33.509Z,100431.53
2022-09-23T18:29:59.002Z,100448.97
2022-09-23T18:35:23.694Z,100446.41
2022-09-23T18:40:56.011Z,100443.97
2022-09-23T18:46:22.132Z,100452.53
2022-09-23T18:51:51.904Z,100460.47
2022-09-23T18:57:17.197Z,100456.47
2022-09-23T19:02:43.104Z,100454.09
2022-09-23T19:08:08.929Z,100447.94
2022-09-23T19:13:35.809Z,100440.50
2022-09-23T19:19:01.006Z,100438.94
2022-09-23T19:24:25.099Z,100446.31
2022-09-23T19:29:51.232Z,100443.44
2022-09-23T19:35:16.078Z,100444.72
2022-09-23T19:40:40.141Z,100436.19
2022-09-23T19:46:07.333Z,100436.66
2022-09-23T19:51:34.053Z,100424.31
2022-09-23T19:56:58.302Z,100421.78
2022-09-23T20:02:23.835Z,100422.72
2022-09-23T20:07:48.337Z,100417.00
2022-09-23T20:13:14.644Z,100415.34
2022-09-23T20:18:40.767Z,100408.47
2022-09-23T20:24:07.637Z,100405.41
2022-09-23T20:29:31.904Z,100399.22
2022-09-23T20:34:58.112Z,100402.22
2022-09-23T20:40:23.145Z,100403.97
2022-09-23T20:45:51.137Z,100401.88
2022-09-23T20:51:16.545Z,100406.84
2022-09-23T20:56:40.641Z,100397.22
2022-09-23T21:02:06.621Z,100403.25
2022-09-23T21:07:32.093Z,100396.59
2022-09-23T21:12:56.107Z,100394.47
2022-09-23T21:18:22.600Z,100390.22
2022-09-23T21:23:50.785Z,100391.50
2022-09-23T21:29:16.461Z,100380.63
2022-09-23T21:34:40.826Z,100374.03
2022-09-23T21:40:25.049Z,100380.22
2022-09-23T21:45:49.737Z,100377.78
2022-09-23T21:51:16.051Z,100376.78
2022-09-23T21:56:41.768Z,100376.56
2022-09-23T22:02:06.226Z,100378.06
2022-09-23T22:07:32.094Z,100373.69
2022-09-23T22:12:57.634Z,100384.34
2022-09-23T22:18:22.126Z,100379.97
2022-09-23T22:23:46.626Z,100372.41
2022-09-23T22:29:31.814Z,100382.00
2022-09-23T22:34:57.923Z,100386.28
2022-09-23T22:40:24.219Z,100368.13
2022-09-23T22:45:51.841Z,100369.22
2022-09-23T22:51:16.066Z,100365.19
2022-09-23T22:56:44.007Z,100360.31
2022-09-23T23:02:09.826Z,100360.75
2022-09-23T23:07:36.239Z,100362.03
2022-09-23T23:13:01.743Z,100366.19
2022-09-23T23:18:32.732Z,100351.63
2022-09-23T23:23:57.736Z,100359.53
2022-09-23T23:29:23.344Z,100358.47
2022-09-23T23:34:48.680Z,100347.06
2022-09-23T23:40:12.920Z,100346.06
2022-09-23T23:45:37.170Z,100347.72
2022-09-23T23:51:06.903Z,100347.53
2022-09-23T23:56:32.636Z,100351.97
